Buxton, North Dakota
Current Conditions -  °F | °C
As of 2:53 AM on Sunday 21 Dec 2014 (Local Time) from KGFK Reporting Station
Overcast Overcast  
Wind Chill: 21°   Ceiling: 800
Heat Index: 30°   Visibility: 7mi
Dew Point: 28°   Wind: 12mph
Humidity: 92%   Direction: 200°SSW
Pressure: 29.79"   Gusts: NA
Location:  47.6°N, 97.1°W
Report Text: KGFK 210853Z AUTO 20010KT 7SM OVC008 M01/M02 A2979 RMK AO2 SLP101 60000 T10111022 56013 TSNO $
Loading
Personal Weather Stations






























Interactive Weather Map New forecast layout! Learn more

10-Day Weather Forecast

Advertisements
Track Severe Weather on mobile